KBTP/BTP METAR and TAF weather

Enter ICAO airport designator
Station Type Date Time Source
KBTP METAR 2022/06/26 07:56 UTC NOAA

KBTP 260756Z AUTO 14005KT 10SM FEW045 21/18 A3006 RMK AO2 SLP175 T02060183 TSNO


Station Type Date Time Source
KBTP Decoded METAR 2022/06/26 07:56 UTC NOAA

Butler, Butler County Airport/K W Scholter Field, PA, United States (KBTP) 40-47N 079-57W
Jun 26, 2022 - 03:56 AM EDT / 2022.06.26 0756 UTC
Wind: from the SE (140 degrees) at 6 MPH (5 KT):0
Visibility: 10 mile(s):0
Sky conditions: mostly clear
Temperature: 69.1 F (20.6 C)
Dew Point: 64.9 F (18.3 C)
Relative Humidity: 86%
Pressure (altimeter): 30.06 in. Hg (1017 hPa)
ob: KBTP 260756Z AUTO 14005KT 10SM FEW045 21/18 A3006 RMK AO2 SLP175 T02060183 TSNO
cycle: 8

Station Type Date Time Source
KBTP TAF UTC NOAA

Error!

Example: see airport list